CheckWX is a tool to help pilots better visualize weather data.  It is not intended as a substitute for an official pre-flight weather briefing.

18:35:27 UTC

EHFZ METAR
F16-a Sea
F16-a Sea, The Netherlands
Current

40 mins ago

EHFZ 221755Z AUTO 14016KT 7000 NCD 07/06 Q1038 W///H///
Observed
Feb-22 @ 17:55 UTC
Wind
  • 140° at 16 KTS
Visibility
7,001 meters
Flight Rules
MVFR
Cloud Levels
  • Clear skies
Temperature
C / 45°F
Dewpoint
C / 43°F
Humidity
93%
Altimeter
30.65" Hg
Pressure
1037.91 hPa
Previous

1 hour ago

EHFZ 221725Z AUTO 13013KT 3700 BR NCD 07/07 Q1038 W///H///
Observed
Feb-22 @ 17:25 UTC
Wind
  • 130° at 13 KTS
Visibility
3,701 meters
Flight Rules
IFR
Conditions
Mist
Cloud Levels
  • Clear skies
Temperature
C / 45°F
Dewpoint
C / 45°F
Humidity
100%
Altimeter
30.65" Hg
Pressure
1037.91 hPa
Previous

2 hours ago

EHFZ 221655Z AUTO 14013KT 9999 NCD 08/07 Q1037 W///H///
Observed
Feb-22 @ 16:55 UTC
Wind
  • 140° at 13 KTS
Visibility
10,000+ meters
Flight Rules
VFR
Cloud Levels
  • Clear skies
Temperature
C / 46°F
Dewpoint
C / 45°F
Humidity
93%
Altimeter
30.62" Hg
Pressure
1036.91 hPa